Rachel, NV

10:46 AM PDT on June 30, 2015 (GMT -0700)
Indian Springs Air Force Auxiliary | | Change Station
CLOSE
Current Station
Airport
Location: Indian Springs,
Elevation: 3133 ft
Nearby Weather Stations

Elev 3133 ft 36.59 °N, 115.67 °W | Updated 48 minutes ago

Partly Cloudy
Partly Cloudy
98 °F
Feels Like 98 °F
N
4
Wind Variable Wind from Variable

Today
High -- | Low -- °F
--% Chance of Precip.
Yesterday
High -- | Low -- °F
Precip. -- in
5:24 AM 8:07 PM
Waxing Gibbous, 98% visible
Pressure 29.82 in
Visibility 10.0 miles
Clouds Few 13000 ft
Dew Point 49 °F
Humidity 19%
Rainfall 0.00 in
Snow Depth Not available.
UV 8 out of 12
Pollen 4.60 out of 12
Air Quality Not available.
Flu Activity Sporadic
METAR KINS 301658Z AUTO VRB03KT 10SM FEW130 36/10 A3000 RMK AO2 SLP097 T03640096 $

More Conditions Fewer Conditions

Pressure 29.82 in
Visibility 10.0 miles
Clouds Few 13000 ft
Dew Point 49 °F
Humidity 19%
Rainfall 0.00 in
Snow Depth Not available.
UV 8 out of 12
Pollen 4.60 out of 12
Air Quality Not available.
Flu Activity Sporadic
METAR KINS 301658Z AUTO VRB03KT 10SM FEW130 36/10 A3000 RMK AO2 SLP097 T03640096 $

More Conditions Fewer Conditions

10-Day Weather Forecast

×

Almanac

Astronomy

Jun. 30, 2015 Rise Set
Actual Time
Civil Twilight
Nautical Twilight
Astronomical Twilight
Moon
Length of Visible Light
Length of Day
Tomorrow will be .
, % of the Moon is Illuminated

Today's Extremes

State Highs State Lows

Community

WunderPhotos

Upload Photos

1,834,039 photos uploaded!

WunderBlogs® & News

Nearby

Air Quality

  Air Quality AQ Index Pollutant
Not available.

Snow Depth

Station Depth Elevation

Earthquake Activity

City Distance Mag. Time & Date
Minimum magnitude displayed is 2.5.

Coastal Water Temperatures

Place Temperature

Stations

Nearby Weather Stations

Station Location Temp. Windchill Dew Point Humidity Wind Precip. Elev Updated Type